Dewey, Arkansas
Current Conditions -  °F | °C
As of 10:18 AM on Sunday 23 Nov 2014 (Local Time) from KSRC Reporting Station
Light Rain Light Rain  
Wind Chill: 59°   Ceiling: 400
Heat Index: 59°   Visibility: 6mi
Dew Point: 57°   Wind: 8mph
Humidity: 94%   Direction: 130°SE
Pressure: 29.56"   Gusts: NA
Location:  35.4331°N, 91.7663°W
Report Text: KSRC 231618Z AUTO 13007KT 6SM -RA BR OVC004 15/14 A2956 RMK AO2 P0004 TSNO
Loading
Personal Weather Stations






























Interactive Weather Map New forecast layout! Learn more

10-Day Weather Forecast

Advertisements
Track Severe Weather on mobile